sensor_id;sensor_type;location;lat;lon;timestamp;P1;durP1;ratioP1;P2;durP2;ratioP2
30147;SDS011;16960;49.404;8.248;2023-02-15T00:01:29;12.37;;;11.10;;
30147;SDS011;16960;49.404;8.248;2023-02-15T00:03:57;12.30;;;10.37;;
30147;SDS011;16960;49.404;8.248;2023-02-15T00:06:24;12.90;;;10.47;;
30147;SDS011;16960;49.404;8.248;2023-02-15T00:08:51;12.10;;;10.30;;
30147;SDS011;16960;49.404;8.248;2023-02-15T00:11:19;12.40;;;10.77;;
30147;SDS011;16960;49.404;8.248;2023-02-15T00:14:05;13.00;;;10.20;;
30147;SDS011;16960;49.404;8.248;2023-02-15T00:16:34;13.20;;;11.10;;
30147;SDS011;16960;49.404;8.248;2023-02-15T00:19:01;12.60;;;10.47;;
30147;SDS011;16960;49.404;8.248;2023-02-15T00:21:29;11.73;;;10.53;;
30147;SDS011;16960;49.404;8.248;2023-02-15T00:23:57;12.57;;;10.27;;
30147;SDS011;16960;49.404;8.248;2023-02-15T00:26:25;11.93;;;10.70;;
30147;SDS011;16960;49.404;8.248;2023-02-15T00:28:53;11.77;;;10.07;;
30147;SDS011;16960;49.404;8.248;2023-02-15T00:31:20;13.37;;;10.70;;
30147;SDS011;16960;49.404;8.248;2023-02-15T00:33:49;14.20;;;10.77;;
30147;SDS011;16960;49.404;8.248;2023-02-15T00:36:16;13.57;;;10.73;;
30147;SDS011;16960;49.404;8.248;2023-02-15T00:38:43;13.20;;;11.10;;
30147;SDS011;16960;49.404;8.248;2023-02-15T00:41:10;12.07;;;10.33;;
30147;SDS011;16960;49.404;8.248;2023-02-15T00:43:37;14.03;;;11.53;;
30147;SDS011;16960;49.404;8.248;2023-02-15T00:46:04;12.07;;;10.53;;
30147;SDS011;16960;49.404;8.248;2023-02-15T00:48:31;13.30;;;10.97;;
30147;SDS011;16960;49.404;8.248;2023-02-15T00:51:00;12.47;;;11.10;;
30147;SDS011;16960;49.404;8.248;2023-02-15T00:53:27;12.50;;;11.20;;
30147;SDS011;16960;49.404;8.248;2023-02-15T00:55:55;12.20;;;10.90;;
30147;SDS011;16960;49.404;8.248;2023-02-15T00:58:22;12.50;;;9.97;;
30147;SDS011;16960;49.404;8.248;2023-02-15T01:00:49;13.70;;;11.57;;
30147;SDS011;16960;49.404;8.248;2023-02-15T01:03:17;13.07;;;11.40;;
30147;SDS011;16960;49.404;8.248;2023-02-15T01:05:46;14.03;;;11.17;;
30147;SDS011;16960;49.404;8.248;2023-02-15T01:08:15;12.77;;;10.90;;
30147;SDS011;16960;49.404;8.248;2023-02-15T01:10:42;13.63;;;11.30;;
30147;SDS011;16960;49.404;8.248;2023-02-15T01:13:12;13.60;;;11.50;;
30147;SDS011;16960;49.404;8.248;2023-02-15T01:15:40;12.57;;;10.50;;
30147;SDS011;16960;49.404;8.248;2023-02-15T01:18:07;13.80;;;11.23;;
30147;SDS011;16960;49.404;8.248;2023-02-15T01:20:35;12.70;;;10.70;;
30147;SDS011;16960;49.404;8.248;2023-02-15T01:23:06;12.10;;;10.80;;
30147;SDS011;16960;49.404;8.248;2023-02-15T01:25:35;11.73;;;9.77;;
30147;SDS011;16960;49.404;8.248;2023-02-15T01:28:02;12.40;;;10.43;;
30147;SDS011;16960;49.404;8.248;2023-02-15T01:30:30;13.47;;;10.83;;
30147;SDS011;16960;49.404;8.248;2023-02-15T01:32:57;13.97;;;11.47;;
30147;SDS011;16960;49.404;8.248;2023-02-15T01:35:25;12.53;;;11.13;;
30147;SDS011;16960;49.404;8.248;2023-02-15T01:37:53;12.67;;;11.20;;
30147;SDS011;16960;49.404;8.248;2023-02-15T01:40:20;11.93;;;10.73;;
30147;SDS011;16960;49.404;8.248;2023-02-15T01:42:51;13.87;;;10.93;;
30147;SDS011;16960;49.404;8.248;2023-02-15T01:45:20;11.83;;;10.20;;
30147;SDS011;16960;49.404;8.248;2023-02-15T01:47:50;12.13;;;10.57;;
30147;SDS011;16960;49.404;8.248;2023-02-15T01:50:21;12.47;;;10.97;;
30147;SDS011;16960;49.404;8.248;2023-02-15T01:52:53;12.23;;;10.00;;
30147;SDS011;16960;49.404;8.248;2023-02-15T01:55:24;13.27;;;10.67;;
30147;SDS011;16960;49.404;8.248;2023-02-15T01:57:54;12.30;;;10.60;;
30147;SDS011;16960;49.404;8.248;2023-02-15T02:00:21;12.63;;;11.17;;
30147;SDS011;16960;49.404;8.248;2023-02-15T02:02:49;12.30;;;11.03;;
30147;SDS011;16960;49.404;8.248;2023-02-15T02:05:19;11.63;;;9.97;;
30147;SDS011;16960;49.404;8.248;2023-02-15T02:07:46;12.57;;;11.10;;
30147;SDS011;16960;49.404;8.248;2023-02-15T02:10:17;11.97;;;10.20;;
30147;SDS011;16960;49.404;8.248;2023-02-15T02:12:48;14.20;;;11.57;;
30147;SDS011;16960;49.404;8.248;2023-02-15T02:15:19;14.37;;;12.07;;
30147;SDS011;16960;49.404;8.248;2023-02-15T02:17:54;11.77;;;10.37;;
30147;SDS011;16960;49.404;8.248;2023-02-15T02:26:43;12.07;;;10.00;;
30147;SDS011;16960;49.404;8.248;2023-02-15T02:35:24;11.43;;;10.23;;
30147;SDS011;16960;49.404;8.248;2023-02-15T02:38:00;11.43;;;10.10;;
30147;SDS011;16960;49.404;8.248;2023-02-15T02:40:34;11.50;;;10.30;;
30147;SDS011;16960;49.404;8.248;2023-02-15T02:43:10;12.70;;;10.10;;
30147;SDS011;16960;49.404;8.248;2023-02-15T02:45:43;12.13;;;10.90;;
30147;SDS011;16960;49.404;8.248;2023-02-15T02:48:15;11.10;;;9.90;;
30147;SDS011;16960;49.404;8.248;2023-02-15T02:50:47;12.57;;;10.67;;
30147;SDS011;16960;49.404;8.248;2023-02-15T02:53:14;11.93;;;10.30;;
30147;SDS011;16960;49.404;8.248;2023-02-15T02:55:41;11.73;;;10.50;;
30147;SDS011;16960;49.404;8.248;2023-02-15T02:58:13;11.10;;;9.77;;
30147;SDS011;16960;49.404;8.248;2023-02-15T03:00:44;14.03;;;11.57;;
30147;SDS011;16960;49.404;8.248;2023-02-15T03:03:16;11.03;;;10.00;;
30147;SDS011;16960;49.404;8.248;2023-02-15T03:05:50;14.57;;;10.80;;
30147;SDS011;16960;49.404;8.248;2023-02-15T03:08:21;13.30;;;10.60;;
30147;SDS011;16960;49.404;8.248;2023-02-15T03:10:54;11.03;;;9.10;;
30147;SDS011;16960;49.404;8.248;2023-02-15T03:13:24;10.70;;;9.30;;
30147;SDS011;16960;49.404;8.248;2023-02-15T03:15:51;10.60;;;9.50;;
30147;SDS011;16960;49.404;8.248;2023-02-15T03:18:37;10.73;;;9.63;;
30147;SDS011;16960;49.404;8.248;2023-02-15T03:21:10;12.47;;;10.27;;
30147;SDS011;16960;49.404;8.248;2023-02-15T03:23:48;10.30;;;9.20;;
30147;SDS011;16960;49.404;8.248;2023-02-15T03:26:19;11.10;;;9.33;;
30147;SDS011;16960;49.404;8.248;2023-02-15T03:28:47;12.30;;;10.50;;
30147;SDS011;16960;49.404;8.248;2023-02-15T03:31:17;12.30;;;10.30;;
30147;SDS011;16960;49.404;8.248;2023-02-15T03:33:49;10.03;;;9.07;;
30147;SDS011;16960;49.404;8.248;2023-02-15T03:36:22;11.33;;;10.13;;
30147;SDS011;16960;49.404;8.248;2023-02-15T03:38:54;11.73;;;9.77;;
30147;SDS011;16960;49.404;8.248;2023-02-15T03:41:25;11.80;;;9.50;;
30147;SDS011;16960;49.404;8.248;2023-02-15T03:43:58;11.50;;;8.97;;
30147;SDS011;16960;49.404;8.248;2023-02-15T03:46:30;11.90;;;9.37;;
30147;SDS011;16960;49.404;8.248;2023-02-15T03:49:02;10.20;;;9.17;;
30147;SDS011;16960;49.404;8.248;2023-02-15T03:51:34;10.10;;;9.10;;
30147;SDS011;16960;49.404;8.248;2023-02-15T03:54:04;11.50;;;9.27;;
30147;SDS011;16960;49.404;8.248;2023-02-15T03:56:34;10.57;;;9.40;;
30147;SDS011;16960;49.404;8.248;2023-02-15T03:59:03;11.40;;;9.13;;
30147;SDS011;16960;49.404;8.248;2023-02-15T04:01:50;9.90;;;8.63;;
30147;SDS011;16960;49.404;8.248;2023-02-15T04:04:24;10.23;;;9.13;;
30147;SDS011;16960;49.404;8.248;2023-02-15T04:06:56;10.40;;;9.37;;
30147;SDS011;16960;49.404;8.248;2023-02-15T04:09:23;9.70;;;8.63;;
30147;SDS011;16960;49.404;8.248;2023-02-15T04:12:07;9.37;;;8.40;;
30147;SDS011;16960;49.404;8.248;2023-02-15T04:14:34;10.03;;;8.03;;
30147;SDS011;16960;49.404;8.248;2023-02-15T04:17:19;9.33;;;8.30;;
30147;SDS011;16960;49.404;8.248;2023-02-15T04:19:46;9.27;;;8.23;;
30147;SDS011;16960;49.404;8.248;2023-02-15T04:22:31;10.57;;;8.33;;
30147;SDS011;16960;49.404;8.248;2023-02-15T04:25:16;9.23;;;8.10;;
30147;SDS011;16960;49.404;8.248;2023-02-15T04:27:43;9.60;;;8.60;;
30147;SDS011;16960;49.404;8.248;2023-02-15T04:30:12;10.60;;;8.30;;
30147;SDS011;16960;49.404;8.248;2023-02-15T04:32:40;16.57;;;8.50;;
30147;SDS011;16960;49.404;8.248;2023-02-15T04:35:07;9.57;;;8.60;;
30147;SDS011;16960;49.404;8.248;2023-02-15T04:37:35;10.30;;;8.40;;
30147;SDS011;16960;49.404;8.248;2023-02-15T04:40:03;9.60;;;7.90;;
30147;SDS011;16960;49.404;8.248;2023-02-15T04:42:31;10.60;;;8.37;;
30147;SDS011;16960;49.404;8.248;2023-02-15T04:44:58;10.37;;;7.70;;
30147;SDS011;16960;49.404;8.248;2023-02-15T04:47:25;11.90;;;8.17;;
30147;SDS011;16960;49.404;8.248;2023-02-15T04:49:52;8.50;;;7.50;;
30147;SDS011;16960;49.404;8.248;2023-02-15T04:52:19;11.10;;;8.70;;
30147;SDS011;16960;49.404;8.248;2023-02-15T04:54:47;8.90;;;7.90;;
30147;SDS011;16960;49.404;8.248;2023-02-15T04:57:14;8.57;;;7.30;;
30147;SDS011;16960;49.404;8.248;2023-02-15T04:59:41;9.07;;;7.40;;
30147;SDS011;16960;49.404;8.248;2023-02-15T05:02:08;9.67;;;7.53;;
30147;SDS011;16960;49.404;8.248;2023-02-15T05:04:35;7.50;;;6.60;;
30147;SDS011;16960;49.404;8.248;2023-02-15T05:07:02;7.33;;;6.63;;
30147;SDS011;16960;49.404;8.248;2023-02-15T05:09:29;8.93;;;7.63;;
30147;SDS011;16960;49.404;8.248;2023-02-15T05:11:57;7.67;;;6.87;;
30147;SDS011;16960;49.404;8.248;2023-02-15T05:14:24;9.87;;;8.10;;
30147;SDS011;16960;49.404;8.248;2023-02-15T05:16:51;8.03;;;6.90;;
30147;SDS011;16960;49.404;8.248;2023-02-15T05:19:19;6.73;;;6.00;;
30147;SDS011;16960;49.404;8.248;2023-02-15T05:21:48;8.57;;;7.50;;
30147;SDS011;16960;49.404;8.248;2023-02-15T05:24:15;9.33;;;7.90;;
30147;SDS011;16960;49.404;8.248;2023-02-15T05:27:01;7.50;;;6.70;;
30147;SDS011;16960;49.404;8.248;2023-02-15T05:29:45;6.73;;;5.93;;
30147;SDS011;16960;49.404;8.248;2023-02-15T05:32:12;8.03;;;7.23;;
30147;SDS011;16960;49.404;8.248;2023-02-15T05:34:39;8.40;;;6.93;;
30147;SDS011;16960;49.404;8.248;2023-02-15T05:37:06;6.17;;;5.57;;
30147;SDS011;16960;49.404;8.248;2023-02-15T05:39:33;7.17;;;6.47;;
30147;SDS011;16960;49.404;8.248;2023-02-15T05:42:02;6.80;;;6.10;;
30147;SDS011;16960;49.404;8.248;2023-02-15T05:44:29;7.43;;;6.60;;
30147;SDS011;16960;49.404;8.248;2023-02-15T05:46:56;6.63;;;6.03;;
30147;SDS011;16960;49.404;8.248;2023-02-15T05:49:23;7.07;;;6.00;;
30147;SDS011;16960;49.404;8.248;2023-02-15T05:51:49;6.90;;;6.20;;
30147;SDS011;16960;49.404;8.248;2023-02-15T05:54:16;6.03;;;5.43;;
30147;SDS011;16960;49.404;8.248;2023-02-15T05:56:43;6.80;;;6.13;;
30147;SDS011;16960;49.404;8.248;2023-02-15T05:59:11;7.77;;;6.93;;
30147;SDS011;16960;49.404;8.248;2023-02-15T06:01:38;5.97;;;5.30;;
30147;SDS011;16960;49.404;8.248;2023-02-15T06:04:05;6.57;;;5.90;;
30147;SDS011;16960;49.404;8.248;2023-02-15T06:06:32;7.80;;;7.10;;
30147;SDS011;16960;49.404;8.248;2023-02-15T06:08:59;6.50;;;5.83;;
30147;SDS011;16960;49.404;8.248;2023-02-15T06:11:26;7.30;;;6.53;;
30147;SDS011;16960;49.404;8.248;2023-02-15T06:13:53;6.27;;;5.63;;
30147;SDS011;16960;49.404;8.248;2023-02-15T06:16:21;6.37;;;5.77;;
30147;SDS011;16960;49.404;8.248;2023-02-15T06:18:48;5.93;;;5.40;;
30147;SDS011;16960;49.404;8.248;2023-02-15T06:21:15;6.60;;;5.87;;
30147;SDS011;16960;49.404;8.248;2023-02-15T06:23:43;8.00;;;5.50;;
30147;SDS011;16960;49.404;8.248;2023-02-15T06:26:10;5.40;;;4.90;;
30147;SDS011;16960;49.404;8.248;2023-02-15T06:28:37;5.90;;;5.30;;
30147;SDS011;16960;49.404;8.248;2023-02-15T06:31:06;6.27;;;5.63;;
30147;SDS011;16960;49.404;8.248;2023-02-15T06:33:34;6.70;;;5.80;;
30147;SDS011;16960;49.404;8.248;2023-02-15T06:36:01;5.60;;;5.10;;
30147;SDS011;16960;49.404;8.248;2023-02-15T06:38:28;10.40;;;5.70;;
30147;SDS011;16960;49.404;8.248;2023-02-15T06:40:55;6.37;;;5.77;;
30147;SDS011;16960;49.404;8.248;2023-02-15T06:43:22;6.17;;;5.37;;
30147;SDS011;16960;49.404;8.248;2023-02-15T06:45:49;6.27;;;5.23;;
30147;SDS011;16960;49.404;8.248;2023-02-15T06:48:16;7.37;;;5.83;;
30147;SDS011;16960;49.404;8.248;2023-02-15T06:50:44;6.30;;;5.70;;
30147;SDS011;16960;49.404;8.248;2023-02-15T06:53:11;13.93;;;6.27;;
30147;SDS011;16960;49.404;8.248;2023-02-15T06:55:38;6.00;;;5.00;;
30147;SDS011;16960;49.404;8.248;2023-02-15T06:58:05;5.70;;;5.10;;
30147;SDS011;16960;49.404;8.248;2023-02-15T07:00:32;6.20;;;5.60;;
30147;SDS011;16960;49.404;8.248;2023-02-15T07:02:59;7.60;;;6.80;;
30147;SDS011;16960;49.404;8.248;2023-02-15T07:05:27;6.67;;;5.87;;
30147;SDS011;16960;49.404;8.248;2023-02-15T07:07:57;7.17;;;6.50;;
30147;SDS011;16960;49.404;8.248;2023-02-15T07:10:24;6.53;;;5.93;;
30147;SDS011;16960;49.404;8.248;2023-02-15T07:12:52;7.13;;;5.93;;
30147;SDS011;16960;49.404;8.248;2023-02-15T07:15:18;6.90;;;6.13;;
30147;SDS011;16960;49.404;8.248;2023-02-15T07:17:46;7.13;;;5.90;;
30147;SDS011;16960;49.404;8.248;2023-02-15T07:20:15;7.97;;;7.23;;
30147;SDS011;16960;49.404;8.248;2023-02-15T07:22:43;7.80;;;7.03;;
30147;SDS011;16960;49.404;8.248;2023-02-15T07:25:12;8.03;;;6.80;;
30147;SDS011;16960;49.404;8.248;2023-02-15T07:27:39;8.60;;;7.13;;
30147;SDS011;16960;49.404;8.248;2023-02-15T07:30:07;8.90;;;8.00;;
30147;SDS011;16960;49.404;8.248;2023-02-15T07:32:36;7.43;;;6.73;;
30147;SDS011;16960;49.404;8.248;2023-02-15T07:35:24;6.27;;;5.67;;
30147;SDS011;16960;49.404;8.248;2023-02-15T07:37:51;7.40;;;6.70;;
30147;SDS011;16960;49.404;8.248;2023-02-15T07:40:20;7.83;;;7.13;;
30147;SDS011;16960;49.404;8.248;2023-02-15T07:42:48;8.57;;;6.80;;
30147;SDS011;16960;49.404;8.248;2023-02-15T07:45:18;6.63;;;6.03;;
30147;SDS011;16960;49.404;8.248;2023-02-15T07:47:45;9.60;;;6.40;;
30147;SDS011;16960;49.404;8.248;2023-02-15T07:50:12;7.40;;;6.70;;
30147;SDS011;16960;49.404;8.248;2023-02-15T07:52:39;7.00;;;6.40;;
30147;SDS011;16960;49.404;8.248;2023-02-15T07:55:06;7.03;;;6.20;;
30147;SDS011;16960;49.404;8.248;2023-02-15T07:57:40;6.77;;;6.13;;
30147;SDS011;16960;49.404;8.248;2023-02-15T08:00:09;6.60;;;6.00;;
30147;SDS011;16960;49.404;8.248;2023-02-15T08:02:38;6.40;;;5.80;;
30147;SDS011;16960;49.404;8.248;2023-02-15T08:05:05;6.83;;;6.20;;
30147;SDS011;16960;49.404;8.248;2023-02-15T08:07:33;6.87;;;6.27;;
30147;SDS011;16960;49.404;8.248;2023-02-15T08:10:00;7.00;;;6.37;;
30147;SDS011;16960;49.404;8.248;2023-02-15T08:12:27;6.67;;;5.80;;
30147;SDS011;16960;49.404;8.248;2023-02-15T08:14:56;6.63;;;6.03;;
30147;SDS011;16960;49.404;8.248;2023-02-15T08:17:23;8.10;;;6.40;;
30147;SDS011;16960;49.404;8.248;2023-02-15T08:19:50;6.50;;;5.90;;
30147;SDS011;16960;49.404;8.248;2023-02-15T08:22:17;6.10;;;5.57;;
30147;SDS011;16960;49.404;8.248;2023-02-15T08:24:44;6.37;;;5.80;;
30147;SDS011;16960;49.404;8.248;2023-02-15T08:27:12;7.90;;;7.10;;
30147;SDS011;16960;49.404;8.248;2023-02-15T08:29:39;6.30;;;5.67;;
30147;SDS011;16960;49.404;8.248;2023-02-15T08:32:09;5.53;;;5.03;;
30147;SDS011;16960;49.404;8.248;2023-02-15T08:34:37;5.10;;;4.70;;
30147;SDS011;16960;49.404;8.248;2023-02-15T08:37:06;5.80;;;5.30;;
30147;SDS011;16960;49.404;8.248;2023-02-15T08:39:33;5.57;;;5.03;;
30147;SDS011;16960;49.404;8.248;2023-02-15T08:42:00;5.10;;;4.60;;
30147;SDS011;16960;49.404;8.248;2023-02-15T08:44:27;5.07;;;4.67;;
30147;SDS011;16960;49.404;8.248;2023-02-15T08:46:54;5.17;;;4.77;;
30147;SDS011;16960;49.404;8.248;2023-02-15T08:49:25;5.40;;;4.90;;
30147;SDS011;16960;49.404;8.248;2023-02-15T08:51:51;5.47;;;5.00;;
30147;SDS011;16960;49.404;8.248;2023-02-15T08:54:20;5.47;;;4.97;;
30147;SDS011;16960;49.404;8.248;2023-02-15T08:56:47;4.93;;;4.53;;
30147;SDS011;16960;49.404;8.248;2023-02-15T08:59:15;6.33;;;5.80;;
30147;SDS011;16960;49.404;8.248;2023-02-15T09:01:44;5.30;;;4.90;;
30147;SDS011;16960;49.404;8.248;2023-02-15T09:04:12;5.10;;;4.60;;
30147;SDS011;16960;49.404;8.248;2023-02-15T09:06:42;4.67;;;3.90;;
30147;SDS011;16960;49.404;8.248;2023-02-15T09:09:10;4.17;;;3.83;;
30147;SDS011;16960;49.404;8.248;2023-02-15T09:11:38;4.87;;;4.47;;
30147;SDS011;16960;49.404;8.248;2023-02-15T09:14:07;4.17;;;3.87;;
30147;SDS011;16960;49.404;8.248;2023-02-15T09:16:35;4.97;;;4.47;;
30147;SDS011;16960;49.404;8.248;2023-02-15T09:19:04;4.63;;;4.23;;
30147;SDS011;16960;49.404;8.248;2023-02-15T09:21:31;4.50;;;4.10;;
30147;SDS011;16960;49.404;8.248;2023-02-15T09:24:03;4.80;;;4.40;;
30147;SDS011;16960;49.404;8.248;2023-02-15T09:26:32;5.47;;;4.97;;
30147;SDS011;16960;49.404;8.248;2023-02-15T09:29:01;4.50;;;4.10;;
30147;SDS011;16960;49.404;8.248;2023-02-15T09:31:30;4.63;;;4.30;;
30147;SDS011;16960;49.404;8.248;2023-02-15T09:33:58;4.40;;;4.00;;
30147;SDS011;16960;49.404;8.248;2023-02-15T09:36:27;4.30;;;3.90;;
30147;SDS011;16960;49.404;8.248;2023-02-15T09:38:56;4.73;;;4.30;;
30147;SDS011;16960;49.404;8.248;2023-02-15T09:41:38;4.27;;;3.93;;
30147;SDS011;16960;49.404;8.248;2023-02-15T09:44:24;5.00;;;4.50;;
30147;SDS011;16960;49.404;8.248;2023-02-15T09:47:17;5.20;;;4.20;;
30147;SDS011;16960;49.404;8.248;2023-02-15T09:49:55;5.63;;;5.13;;
30147;SDS011;16960;49.404;8.248;2023-02-15T09:52:33;4.73;;;4.33;;
30147;SDS011;16960;49.404;8.248;2023-02-15T09:55:15;4.93;;;4.53;;
30147;SDS011;16960;49.404;8.248;2023-02-15T09:57:57;5.73;;;5.23;;
30147;SDS011;16960;49.404;8.248;2023-02-15T10:00:36;4.90;;;4.50;;
30147;SDS011;16960;49.404;8.248;2023-02-15T10:03:18;5.67;;;5.10;;
30147;SDS011;16960;49.404;8.248;2023-02-15T10:06:17;5.20;;;4.70;;
30147;SDS011;16960;49.404;8.248;2023-02-15T10:12:00;4.43;;;4.13;;
30147;SDS011;16960;49.404;8.248;2023-02-15T10:14:49;4.43;;;4.03;;
30147;SDS011;16960;49.404;8.248;2023-02-15T10:17:41;5.33;;;4.83;;
30147;SDS011;16960;49.404;8.248;2023-02-15T10:20:21;4.87;;;4.47;;
30147;SDS011;16960;49.404;8.248;2023-02-15T10:23:02;4.90;;;4.50;;
30147;SDS011;16960;49.404;8.248;2023-02-15T10:25:54;4.80;;;4.40;;
30147;SDS011;16960;49.404;8.248;2023-02-15T10:28:30;5.13;;;4.63;;
30147;SDS011;16960;49.404;8.248;2023-02-15T10:31:09;5.30;;;4.80;;
30147;SDS011;16960;49.404;8.248;2023-02-15T10:33:46;4.80;;;4.40;;
30147;SDS011;16960;49.404;8.248;2023-02-15T10:36:19;5.20;;;4.70;;
30147;SDS011;16960;49.404;8.248;2023-02-15T10:38:57;6.23;;;5.00;;
30147;SDS011;16960;49.404;8.248;2023-02-15T10:41:34;4.43;;;4.03;;
30147;SDS011;16960;49.404;8.248;2023-02-15T10:44:10;4.93;;;4.53;;
30147;SDS011;16960;49.404;8.248;2023-02-15T10:47:03;5.00;;;4.60;;
30147;SDS011;16960;49.404;8.248;2023-02-15T10:49:51;4.90;;;4.50;;
30147;SDS011;16960;49.404;8.248;2023-02-15T10:52:33;5.20;;;4.70;;
30147;SDS011;16960;49.404;8.248;2023-02-15T10:55:15;7.90;;;7.20;;
30147;SDS011;16960;49.404;8.248;2023-02-15T10:57:51;8.13;;;7.33;;
30147;SDS011;16960;49.404;8.248;2023-02-15T11:00:26;5.80;;;5.20;;
30147;SDS011;16960;49.404;8.248;2023-02-15T11:03:14;5.00;;;4.50;;
30147;SDS011;16960;49.404;8.248;2023-02-15T11:06:03;5.03;;;4.57;;
30147;SDS011;16960;49.404;8.248;2023-02-15T11:08:35;5.83;;;5.33;;
30147;SDS011;16960;49.404;8.248;2023-02-15T11:11:07;4.90;;;4.50;;
30147;SDS011;16960;49.404;8.248;2023-02-15T11:13:38;4.30;;;3.90;;
30147;SDS011;16960;49.404;8.248;2023-02-15T11:16:10;5.30;;;4.80;;
30147;SDS011;16960;49.404;8.248;2023-02-15T11:18:41;4.73;;;4.43;;
30147;SDS011;16960;49.404;8.248;2023-02-15T11:21:13;4.37;;;4.00;;
30147;SDS011;16960;49.404;8.248;2023-02-15T11:23:45;4.97;;;4.57;;
30147;SDS011;16960;49.404;8.248;2023-02-15T11:26:14;4.83;;;4.43;;
30147;SDS011;16960;49.404;8.248;2023-02-15T11:28:47;5.07;;;4.67;;
30147;SDS011;16960;49.404;8.248;2023-02-15T11:31:19;4.20;;;3.83;;
30147;SDS011;16960;49.404;8.248;2023-02-15T11:33:50;4.70;;;4.30;;
30147;SDS011;16960;49.404;8.248;2023-02-15T11:36:20;4.60;;;4.20;;
30147;SDS011;16960;49.404;8.248;2023-02-15T11:38:51;5.23;;;4.73;;
30147;SDS011;16960;49.404;8.248;2023-02-15T11:41:25;4.77;;;4.37;;
30147;SDS011;16960;49.404;8.248;2023-02-15T11:43:56;4.67;;;4.27;;
30147;SDS011;16960;49.404;8.248;2023-02-15T11:46:30;4.30;;;3.93;;
30147;SDS011;16960;49.404;8.248;2023-02-15T11:48:59;4.67;;;4.27;;
30147;SDS011;16960;49.404;8.248;2023-02-15T11:51:27;4.00;;;3.70;;
30147;SDS011;16960;49.404;8.248;2023-02-15T11:53:55;4.30;;;3.90;;
30147;SDS011;16960;49.404;8.248;2023-02-15T11:56:23;4.73;;;4.33;;
30147;SDS011;16960;49.404;8.248;2023-02-15T11:58:52;4.27;;;3.97;;
30147;SDS011;16960;49.404;8.248;2023-02-15T12:01:24;4.13;;;3.80;;
30147;SDS011;16960;49.404;8.248;2023-02-15T12:03:59;3.90;;;3.60;;
30147;SDS011;16960;49.404;8.248;2023-02-15T12:06:32;4.50;;;4.13;;
30147;SDS011;16960;49.404;8.248;2023-02-15T12:09:02;5.70;;;4.50;;
30147;SDS011;16960;49.404;8.248;2023-02-15T12:11:34;5.00;;;4.57;;
30147;SDS011;16960;49.404;8.248;2023-02-15T12:14:03;4.30;;;4.00;;
30147;SDS011;16960;49.404;8.248;2023-02-15T12:16:32;4.60;;;4.20;;
30147;SDS011;16960;49.404;8.248;2023-02-15T12:19:12;4.57;;;4.17;;
30147;SDS011;16960;49.404;8.248;2023-02-15T12:21:49;4.60;;;4.20;;
30147;SDS011;16960;49.404;8.248;2023-02-15T12:24:19;4.93;;;4.53;;
30147;SDS011;16960;49.404;8.248;2023-02-15T12:26:55;4.67;;;4.27;;
30147;SDS011;16960;49.404;8.248;2023-02-15T12:29:25;4.53;;;4.13;;
30147;SDS011;16960;49.404;8.248;2023-02-15T12:31:55;4.40;;;4.00;;
30147;SDS011;16960;49.404;8.248;2023-02-15T12:34:26;4.63;;;4.23;;
30147;SDS011;16960;49.404;8.248;2023-02-15T12:36:57;4.40;;;4.10;;
30147;SDS011;16960;49.404;8.248;2023-02-15T12:39:27;4.50;;;4.10;;
30147;SDS011;16960;49.404;8.248;2023-02-15T12:41:59;4.87;;;4.47;;
30147;SDS011;16960;49.404;8.248;2023-02-15T12:44:29;4.43;;;4.03;;
30147;SDS011;16960;49.404;8.248;2023-02-15T12:46:58;4.40;;;4.00;;
30147;SDS011;16960;49.404;8.248;2023-02-15T12:49:28;5.20;;;4.73;;
30147;SDS011;16960;49.404;8.248;2023-02-15T12:51:57;5.40;;;4.90;;
30147;SDS011;16960;49.404;8.248;2023-02-15T12:54:32;5.27;;;4.87;;
30147;SDS011;16960;49.404;8.248;2023-02-15T12:59:54;5.27;;;4.87;;
30147;SDS011;16960;49.404;8.248;2023-02-15T13:02:24;5.13;;;4.70;;
30147;SDS011;16960;49.404;8.248;2023-02-15T13:05:13;5.37;;;4.87;;
30147;SDS011;16960;49.404;8.248;2023-02-15T13:07:45;5.67;;;5.17;;
30147;SDS011;16960;49.404;8.248;2023-02-15T13:10:21;6.00;;;5.40;;
30147;SDS011;16960;49.404;8.248;2023-02-15T13:12:50;5.60;;;5.10;;
30147;SDS011;16960;49.404;8.248;2023-02-15T13:15:23;5.50;;;5.00;;
30147;SDS011;16960;49.404;8.248;2023-02-15T13:17:54;5.30;;;4.80;;
30147;SDS011;16960;49.404;8.248;2023-02-15T13:20:23;5.30;;;4.90;;
30147;SDS011;16960;49.404;8.248;2023-02-15T13:22:53;5.57;;;5.07;;
30147;SDS011;16960;49.404;8.248;2023-02-15T13:25:25;5.03;;;4.57;;
30147;SDS011;16960;49.404;8.248;2023-02-15T13:27:55;5.80;;;5.30;;
30147;SDS011;16960;49.404;8.248;2023-02-15T13:30:27;7.13;;;4.77;;
30147;SDS011;16960;49.404;8.248;2023-02-15T13:33:01;6.43;;;5.83;;
30147;SDS011;16960;49.404;8.248;2023-02-15T13:35:36;5.60;;;4.90;;
30147;SDS011;16960;49.404;8.248;2023-02-15T13:38:15;5.27;;;4.87;;
30147;SDS011;16960;49.404;8.248;2023-02-15T13:40:55;6.23;;;5.63;;
30147;SDS011;16960;49.404;8.248;2023-02-15T13:43:31;5.60;;;5.10;;
30147;SDS011;16960;49.404;8.248;2023-02-15T13:46:16;6.00;;;5.43;;
30147;SDS011;16960;49.404;8.248;2023-02-15T13:48:52;5.80;;;5.30;;
30147;SDS011;16960;49.404;8.248;2023-02-15T13:51:33;5.27;;;4.87;;
30147;SDS011;16960;49.404;8.248;2023-02-15T13:54:16;5.40;;;4.90;;
30147;SDS011;16960;49.404;8.248;2023-02-15T13:56:58;6.47;;;5.90;;
30147;SDS011;16960;49.404;8.248;2023-02-15T13:59:46;5.93;;;5.33;;
30147;SDS011;16960;49.404;8.248;2023-02-15T14:02:36;6.77;;;6.17;;
30147;SDS011;16960;49.404;8.248;2023-02-15T14:05:20;5.70;;;5.20;;
30147;SDS011;16960;49.404;8.248;2023-02-15T14:08:07;6.03;;;5.43;;
30147;SDS011;16960;49.404;8.248;2023-02-15T14:10:41;6.70;;;5.70;;
30147;SDS011;16960;49.404;8.248;2023-02-15T14:16:14;6.77;;;6.10;;
30147;SDS011;16960;49.404;8.248;2023-02-15T14:18:46;6.93;;;6.33;;
30147;SDS011;16960;49.404;8.248;2023-02-15T14:21:19;6.47;;;5.87;;
30147;SDS011;16960;49.404;8.248;2023-02-15T14:23:59;6.20;;;5.60;;
30147;SDS011;16960;49.404;8.248;2023-02-15T14:26:40;6.30;;;5.70;;
30147;SDS011;16960;49.404;8.248;2023-02-15T14:29:16;6.63;;;6.03;;
30147;SDS011;16960;49.404;8.248;2023-02-15T14:31:53;6.00;;;5.47;;
30147;SDS011;16960;49.404;8.248;2023-02-15T14:34:23;5.87;;;5.37;;
30147;SDS011;16960;49.404;8.248;2023-02-15T14:36:53;6.40;;;5.90;;
30147;SDS011;16960;49.404;8.248;2023-02-15T14:39:25;6.87;;;6.17;;
30147;SDS011;16960;49.404;8.248;2023-02-15T14:42:18;6.00;;;5.50;;
30147;SDS011;16960;49.404;8.248;2023-02-15T14:44:52;6.00;;;5.43;;
30147;SDS011;16960;49.404;8.248;2023-02-15T14:47:27;5.90;;;5.40;;
30147;SDS011;16960;49.404;8.248;2023-02-15T14:49:58;5.80;;;5.30;;
30147;SDS011;16960;49.404;8.248;2023-02-15T14:52:25;5.73;;;5.23;;
30147;SDS011;16960;49.404;8.248;2023-02-15T14:54:54;6.03;;;5.43;;
30147;SDS011;16960;49.404;8.248;2023-02-15T14:57:24;5.97;;;5.37;;
30147;SDS011;16960;49.404;8.248;2023-02-15T14:59:57;6.17;;;5.60;;
30147;SDS011;16960;49.404;8.248;2023-02-15T15:02:27;6.30;;;5.80;;
30147;SDS011;16960;49.404;8.248;2023-02-15T15:05:06;5.77;;;5.27;;
30147;SDS011;16960;49.404;8.248;2023-02-15T15:07:37;5.23;;;4.83;;
30147;SDS011;16960;49.404;8.248;2023-02-15T15:13:01;5.27;;;4.87;;
30147;SDS011;16960;49.404;8.248;2023-02-15T15:18:51;6.47;;;5.97;;
30147;SDS011;16960;49.404;8.248;2023-02-15T15:24:50;7.00;;;6.40;;
30147;SDS011;16960;49.404;8.248;2023-02-15T15:27:41;5.80;;;5.30;;
30147;SDS011;16960;49.404;8.248;2023-02-15T15:36:55;9.03;;;5.80;;
30147;SDS011;16960;49.404;8.248;2023-02-15T15:40:00;6.20;;;5.70;;
30147;SDS011;16960;49.404;8.248;2023-02-15T15:43:12;6.43;;;5.90;;
30147;SDS011;16960;49.404;8.248;2023-02-15T15:46:24;6.50;;;5.93;;